createdAt,value
2023-02-19T00:02:21.513Z,96619.50
2023-02-19T00:05:18.351Z,96629.34
2023-02-19T00:08:15.218Z,96629.91
2023-02-19T00:11:16.085Z,96638.78
2023-02-19T00:14:18.825Z,96616.41
2023-02-19T00:17:15.654Z,96620.06
2023-02-19T00:20:12.478Z,96616.84
2023-02-19T00:23:09.340Z,96612.59
2023-02-19T00:26:18.572Z,96618.97
2023-02-19T00:29:21.317Z,96617.69
2023-02-19T00:32:18.184Z,96609.63
2023-02-19T00:35:15.156Z,96596.06
2023-02-19T00:38:12.005Z,96593.50
2023-02-19T00:41:21.171Z,96594.75
2023-02-19T00:44:18.245Z,96584.72
2023-02-19T00:47:15.075Z,96580.50
2023-02-19T00:50:11.974Z,96581.59
2023-02-19T00:53:08.822Z,96581.22
2023-02-19T00:56:06.839Z,96580.00
2023-02-19T00:59:04.235Z,96569.53
2023-02-19T01:02:01.081Z,96563.63
2023-02-19T01:04:58.041Z,96560.00
2023-02-19T01:07:54.948Z,96537.03
2023-02-19T01:10:51.937Z,96537.63
2023-02-19T01:13:48.847Z,96534.91
2023-02-19T01:16:45.676Z,96535.34
2023-02-19T01:19:42.507Z,96543.63
2023-02-19T01:22:39.343Z,96542.91
2023-02-19T01:25:40.063Z,96539.25
2023-02-19T01:28:36.982Z,96529.28
2023-02-19T01:31:34.428Z,96524.00
2023-02-19T01:34:33.349Z,96525.31
2023-02-19T01:37:30.291Z,96507.69
2023-02-19T01:40:27.372Z,96501.91
2023-02-19T01:43:24.741Z,96494.94
2023-02-19T01:46:21.621Z,96496.38
2023-02-19T01:49:26.143Z,96495.75
2023-02-19T01:52:32.640Z,96480.88
2023-02-19T01:55:29.753Z,96476.19
2023-02-19T01:58:32.768Z,96477.09
2023-02-19T02:01:29.844Z,96477.03
2023-02-19T02:04:27.437Z,96471.41
2023-02-19T02:07:42.570Z,96471.94
2023-02-19T02:10:40.179Z,96487.47
2023-02-19T02:13:38.685Z,96477.53
2023-02-19T02:16:51.800Z,96480.56
2023-02-19T02:20:44.815Z,96472.91
2023-02-19T02:24:37.050Z,96485.94
2023-02-19T02:27:52.209Z,96474.47
2023-02-19T02:31:10.890Z,96468.31
2023-02-19T02:34:25.332Z,96458.31
2023-02-19T02:37:25.582Z,96463.53
2023-02-19T02:40:23.543Z,96457.88
2023-02-19T02:43:20.380Z,96452.84
2023-02-19T02:46:30.200Z,96443.25
2023-02-19T02:49:28.326Z,96447.50
2023-02-19T02:52:44.097Z,96441.88
2023-02-19T02:55:47.176Z,96447.22
2023-02-19T02:58:45.619Z,96430.72
2023-02-19T03:02:11.976Z,96428.56
2023-02-19T03:05:43.086Z,96432.31
2023-02-19T03:09:02.164Z,96429.69
2023-02-19T03:12:21.682Z,96437.06
2023-02-19T03:15:38.820Z,96448.38
2023-02-19T03:18:57.117Z,96441.56
2023-02-19T03:22:10.784Z,96440.19
2023-02-19T03:25:37.304Z,96440.69
2023-02-19T03:28:57.515Z,96437.56
2023-02-19T03:32:00.747Z,96442.34
2023-02-19T03:35:10.392Z,96435.97
2023-02-19T03:38:33.958Z,96434.50
2023-02-19T03:41:55.417Z,96435.94
2023-02-19T03:45:14.765Z,96426.44
2023-02-19T03:48:32.254Z,96413.25
2023-02-19T03:51:45.284Z,96408.72
2023-02-19T03:54:53.778Z,96410.00
2023-02-19T03:58:03.425Z,96412.13
2023-02-19T04:01:11.139Z,96409.50
2023-02-19T04:04:20.464Z,96411.72
2023-02-19T04:07:17.405Z,96415.19
2023-02-19T04:10:17.321Z,96416.00
2023-02-19T04:13:32.792Z,96423.44
2023-02-19T04:16:30.574Z,96419.22
2023-02-19T04:19:30.818Z,96421.31
2023-02-19T04:22:29.155Z,96419.78
2023-02-19T04:25:29.260Z,96424.25
2023-02-19T04:28:26.122Z,96427.69
2023-02-19T04:31:24.695Z,96434.19
2023-02-19T04:34:21.558Z,96433.59
2023-02-19T04:37:18.392Z,96432.06
2023-02-19T04:40:15.324Z,96437.47
2023-02-19T04:43:12.100Z,96428.19
2023-02-19T04:46:08.968Z,96415.13
2023-02-19T04:49:05.844Z,96418.09
2023-02-19T04:52:02.659Z,96426.31
2023-02-19T04:54:59.463Z,96426.88
2023-02-19T04:57:56.254Z,96414.34
2023-02-19T05:00:53.495Z,96418.84
2023-02-19T05:03:50.955Z,96424.53
2023-02-19T05:06:47.779Z,96431.97
2023-02-19T05:09:44.566Z,96435.13
2023-02-19T05:12:41.381Z,96424.81
2023-02-19T05:15:38.488Z,96430.16
2023-02-19T05:18:35.363Z,96439.97
2023-02-19T05:21:32.174Z,96433.59
2023-02-19T05:24:29.892Z,96432.47
2023-02-19T05:27:26.710Z,96428.22
2023-02-19T05:30:23.625Z,96422.38
2023-02-19T05:33:23.326Z,96416.00
2023-02-19T05:36:21.886Z,96427.06
2023-02-19T05:39:18.668Z,96426.81
2023-02-19T05:42:15.525Z,96425.47
2023-02-19T05:45:12.330Z,96424.69
2023-02-19T05:48:10.884Z,96433.44
2023-02-19T05:51:14.151Z,96435.13
2023-02-19T05:54:10.999Z,96433.47
2023-02-19T05:57:07.838Z,96443.06
2023-02-19T06:00:05.405Z,96448.59
2023-02-19T06:03:02.548Z,96449.97
2023-02-19T06:05:59.398Z,96452.22
2023-02-19T06:08:56.209Z,96454.78
2023-02-19T06:11:53.004Z,96450.84
2023-02-19T06:14:50.155Z,96451.63
2023-02-19T06:17:47.017Z,96449.75
2023-02-19T06:20:43.815Z,96456.50
2023-02-19T06:23:41.256Z,96460.19
2023-02-19T06:26:38.581Z,96460.06
2023-02-19T06:29:38.257Z,96467.03
2023-02-19T06:32:35.273Z,96480.97
2023-02-19T06:35:32.078Z,96487.38
2023-02-19T06:38:29.777Z,96475.22
2023-02-19T06:41:29.686Z,96492.28
2023-02-19T06:44:26.573Z,96513.44
2023-02-19T06:47:25.426Z,96509.44
2023-02-19T06:50:22.364Z,96508.34
2023-02-19T06:53:19.198Z,96517.72
2023-02-19T06:56:32.179Z,96519.59
2023-02-19T06:59:29.001Z,96515.63
2023-02-19T07:02:26.304Z,96511.66
2023-02-19T07:05:23.873Z,96520.19
2023-02-19T07:08:21.041Z,96526.56
2023-02-19T07:11:18.756Z,96528.19
2023-02-19T07:14:16.981Z,96545.47
2023-02-19T07:17:13.805Z,96551.84
2023-02-19T07:20:10.979Z,96549.28
2023-02-19T07:23:07.774Z,96549.25
2023-02-19T07:26:08.190Z,96552.03
2023-02-19T07:29:05.028Z,96558.09
2023-02-19T07:32:01.983Z,96557.16
2023-02-19T07:34:58.777Z,96554.53
2023-02-19T07:37:55.632Z,96569.53
2023-02-19T07:41:05.938Z,96581.88
2023-02-19T07:44:02.779Z,96569.56
2023-02-19T07:46:59.602Z,96577.28
2023-02-19T07:49:56.887Z,96582.13
2023-02-19T07:52:54.077Z,96583.41
2023-02-19T07:55:51.068Z,96590.38
2023-02-19T07:58:47.947Z,96606.56
2023-02-19T08:02:03.453Z,96618.22
2023-02-19T08:05:00.262Z,96619.06
2023-02-19T08:07:57.954Z,96623.31
2023-02-19T08:11:13.269Z,96622.28
2023-02-19T08:14:10.478Z,96616.63
2023-02-19T08:17:07.384Z,96642.47
2023-02-19T08:20:04.273Z,96671.47
2023-02-19T08:23:01.150Z,96659.25
2023-02-19T08:26:00.378Z,96657.72
2023-02-19T08:28:58.963Z,96664.38
2023-02-19T08:31:55.815Z,96668.22
2023-02-19T08:34:52.610Z,96655.66
2023-02-19T08:37:49.437Z,96665.28
2023-02-19T08:40:46.246Z,96687.34
2023-02-19T08:43:43.495Z,96692.81
2023-02-19T08:46:40.288Z,96699.63
2023-02-19T08:49:37.103Z,96699.88
2023-02-19T08:52:34.364Z,96698.81
2023-02-19T08:55:31.501Z,96709.16
2023-02-19T08:58:28.421Z,96716.94
2023-02-19T09:01:25.478Z,96738.16
2023-02-19T09:04:22.320Z,96730.38
2023-02-19T09:07:20.319Z,96721.81
2023-02-19T09:10:17.202Z,96734.56
2023-02-19T09:13:14.030Z,96722.63
2023-02-19T09:16:11.218Z,96739.13
2023-02-19T09:19:08.010Z,96743.13
2023-02-19T09:22:05.743Z,96747.31
2023-02-19T09:25:02.619Z,96748.56
2023-02-19T09:27:59.422Z,96755.22
2023-02-19T09:30:56.250Z,96769.56
2023-02-19T09:33:53.071Z,96757.53
2023-02-19T09:36:50.515Z,96754.22
2023-02-19T09:39:47.302Z,96756.47
2023-02-19T09:42:44.667Z,96763.59
2023-02-19T09:45:42.627Z,96765.16
2023-02-19T09:48:39.519Z,96768.78
2023-02-19T09:51:40.645Z,96771.03
2023-02-19T09:54:39.712Z,96749.56
2023-02-19T09:57:37.044Z,96763.66
2023-02-19T10:00:36.071Z,96774.13
2023-02-19T10:03:41.342Z,96783.00
2023-02-19T10:06:38.315Z,96783.84
2023-02-19T10:09:36.117Z,96783.28
2023-02-19T10:12:34.635Z,96795.56
2023-02-19T10:15:41.204Z,96799.06
2023-02-19T10:18:42.323Z,96787.78
2023-02-19T10:21:39.897Z,96798.97
2023-02-19T10:24:38.602Z,96802.56
2023-02-19T10:27:35.573Z,96805.34
2023-02-19T10:30:35.873Z,96811.94
2023-02-19T10:33:32.776Z,96814.84
2023-02-19T10:36:38.376Z,96818.28
2023-02-19T10:39:47.116Z,96819.66
2023-02-19T10:42:58.799Z,96847.34
2023-02-19T10:45:55.713Z,96853.66
2023-02-19T10:48:55.812Z,96837.44
2023-02-19T10:51:56.541Z,96853.72
2023-02-19T10:54:57.354Z,96852.00
2023-02-19T10:57:55.072Z,96858.81
2023-02-19T11:01:30.268Z,96855.63
2023-02-19T11:04:38.075Z,96845.06
2023-02-19T11:07:37.575Z,96851.94
2023-02-19T11:10:44.762Z,96845.66
2023-02-19T11:13:42.793Z,96847.03
2023-02-19T11:17:00.573Z,96850.47
2023-02-19T11:20:05.201Z,96866.03
2023-02-19T11:23:22.357Z,96864.31
2023-02-19T11:26:25.927Z,96873.41
2023-02-19T11:29:28.632Z,96891.69
2023-02-19T11:32:29.799Z,96885.34
2023-02-19T11:35:26.611Z,96885.47
2023-02-19T11:38:23.518Z,96895.63
2023-02-19T11:41:50.376Z,96893.88
2023-02-19T11:45:34.383Z,96898.94
2023-02-19T11:48:53.810Z,96891.00
2023-02-19T11:52:45.746Z,96881.53
2023-02-19T11:55:48.261Z,96884.84
2023-02-19T11:59:05.174Z,96877.66
2023-02-19T12:02:47.277Z,96873.75
2023-02-19T12:06:22.623Z,96885.09
2023-02-19T12:09:45.283Z,96890.78
2023-02-19T12:13:12.460Z,96894.66
2023-02-19T12:16:43.314Z,96894.88
2023-02-19T12:19:54.503Z,96897.00
2023-02-19T12:23:09.467Z,96893.38
2023-02-19T12:26:48.075Z,96906.91
2023-02-19T12:30:03.390Z,96892.91
2023-02-19T12:33:30.538Z,96901.06
2023-02-19T12:37:11.373Z,96899.69
2023-02-19T12:40:22.931Z,96907.41
2023-02-19T12:43:24.355Z,96913.63
2023-02-19T12:46:33.242Z,96895.88
2023-02-19T12:49:47.059Z,96884.16
2023-02-19T12:52:53.810Z,96906.63
2023-02-19T12:55:52.550Z,96913.47
2023-02-19T12:58:55.095Z,96906.78
2023-02-19T13:02:18.826Z,96921.31
2023-02-19T13:05:58.585Z,96916.75
2023-02-19T13:09:13.708Z,96907.97
2023-02-19T13:12:26.449Z,96916.09
2023-02-19T13:15:48.537Z,96912.56
2023-02-19T13:18:49.973Z,96918.56
2023-02-19T13:22:29.751Z,96924.66
2023-02-19T13:26:15.002Z,96931.25
2023-02-19T13:29:34.222Z,96928.94
2023-02-19T13:32:49.675Z,96937.88
2023-02-19T13:36:10.608Z,96942.91
2023-02-19T13:39:07.544Z,96951.13
2023-02-19T13:42:04.696Z,96953.28
2023-02-19T13:45:05.216Z,96942.56
2023-02-19T13:48:33.879Z,96957.53
2023-02-19T13:51:39.387Z,96957.03
2023-02-19T13:54:40.122Z,96957.63
2023-02-19T13:57:37.511Z,96967.44
2023-02-19T14:00:53.890Z,96985.25
2023-02-19T14:04:18.630Z,96983.50
2023-02-19T14:07:49.283Z,97000.22
2023-02-19T14:11:02.462Z,96986.28
2023-02-19T14:14:06.500Z,96999.22
2023-02-19T14:17:10.074Z,97009.28
2023-02-19T14:20:10.042Z,97013.28
2023-02-19T14:23:23.340Z,97019.69
2023-02-19T14:26:21.220Z,97026.94
2023-02-19T14:29:18.470Z,97019.72
2023-02-19T14:32:20.324Z,97018.63
2023-02-19T14:35:24.918Z,97014.88
2023-02-19T14:38:32.473Z,97008.69
2023-02-19T14:41:33.700Z,97012.44
2023-02-19T14:44:48.536Z,97003.41
2023-02-19T14:47:47.615Z,97011.72
2023-02-19T14:50:51.895Z,97013.03
2023-02-19T14:53:50.398Z,97015.97
2023-02-19T14:56:52.810Z,97018.38
2023-02-19T15:00:33.805Z,97015.09
2023-02-19T15:03:36.179Z,97012.03
2023-02-19T15:06:35.716Z,97009.13
2023-02-19T15:09:39.300Z,97012.81
2023-02-19T15:13:01.103Z,97028.84
2023-02-19T15:15:58.624Z,97021.91
2023-02-19T15:18:57.160Z,97029.34
2023-02-19T15:21:55.527Z,97024.03
2023-02-19T15:24:52.403Z,97022.69
2023-02-19T15:27:49.624Z,97023.25
2023-02-19T15:30:46.442Z,97035.75
2023-02-19T15:33:52.039Z,97029.38
2023-02-19T15:36:52.570Z,97041.66
2023-02-19T15:39:51.379Z,97042.41
2023-02-19T15:42:48.297Z,97051.75
2023-02-19T15:45:46.131Z,97073.06
2023-02-19T15:49:31.061Z,97061.88
2023-02-19T15:52:45.056Z,97063.72
2023-02-19T15:56:02.653Z,97069.03
2023-02-19T15:59:13.465Z,97066.09
2023-02-19T16:02:14.280Z,97066.91
2023-02-19T16:05:27.965Z,97068.25
2023-02-19T16:08:36.746Z,97069.31
2023-02-19T16:11:53.271Z,97068.78
2023-02-19T16:14:51.033Z,97063.72
2023-02-19T16:17:48.262Z,97067.44
2023-02-19T16:20:47.921Z,97063.97
2023-02-19T16:23:49.421Z,97071.44
2023-02-19T16:26:46.611Z,97081.00
2023-02-19T16:29:51.228Z,97094.88
2023-02-19T16:32:48.047Z,97091.16
2023-02-19T16:35:45.012Z,97093.25
2023-02-19T16:38:58.047Z,97096.41
2023-02-19T16:42:02.048Z,97089.53
2023-02-19T16:45:02.142Z,97086.06
2023-02-19T16:47:59.076Z,97084.19
2023-02-19T16:50:56.815Z,97086.34
2023-02-19T16:53:53.959Z,97091.66
2023-02-19T16:56:50.892Z,97102.31
2023-02-19T16:59:48.011Z,97110.78
2023-02-19T17:02:51.586Z,97117.19
2023-02-19T17:05:48.684Z,97129.72
2023-02-19T17:08:45.567Z,97137.91
2023-02-19T17:11:42.366Z,97136.59
2023-02-19T17:14:39.485Z,97137.34
2023-02-19T17:17:36.403Z,97136.75
2023-02-19T17:20:35.690Z,97149.91
2023-02-19T17:23:32.499Z,97147.41
2023-02-19T17:26:32.016Z,97162.53
2023-02-19T17:29:30.501Z,97161.97
2023-02-19T17:32:27.437Z,97170.56
2023-02-19T17:35:24.664Z,97165.84
2023-02-19T17:38:21.573Z,97175.56
2023-02-19T17:41:18.516Z,97157.75
2023-02-19T17:44:15.389Z,97171.88
2023-02-19T17:47:12.231Z,97171.31
2023-02-19T17:50:19.833Z,97173.19
2023-02-19T17:53:16.652Z,97175.56
2023-02-19T17:56:23.731Z,97166.56
2023-02-19T17:59:20.568Z,97176.94
2023-02-19T18:02:17.466Z,97179.84
2023-02-19T18:05:14.671Z,97187.22
2023-02-19T18:08:11.852Z,97192.81
2023-02-19T18:11:08.718Z,97193.78
2023-02-19T18:14:05.508Z,97209.88
2023-02-19T18:17:02.349Z,97215.00
2023-02-19T18:19:59.578Z,97208.00
2023-02-19T18:22:57.816Z,97211.78
2023-02-19T18:25:54.753Z,97201.13
2023-02-19T18:28:51.586Z,97208.50
2023-02-19T18:31:48.564Z,97208.00
2023-02-19T18:34:50.316Z,97201.34
2023-02-19T18:37:53.193Z,97212.84
2023-02-19T18:40:49.982Z,97213.34
2023-02-19T18:43:47.681Z,97220.84
2023-02-19T18:46:44.501Z,97214.13
2023-02-19T18:49:47.004Z,97211.69
2023-02-19T18:52:43.998Z,97212.75
2023-02-19T18:55:40.884Z,97209.59
2023-02-19T18:58:37.705Z,97201.94
2023-02-19T19:01:34.639Z,97200.47
2023-02-19T19:04:31.516Z,97209.06
2023-02-19T19:07:28.356Z,97208.09
2023-02-19T19:10:26.295Z,97206.91
2023-02-19T19:13:23.116Z,97211.69
2023-02-19T19:16:25.349Z,97214.75
2023-02-19T19:19:22.206Z,97215.50
2023-02-19T19:22:22.728Z,97227.44
2023-02-19T19:25:21.336Z,97219.75
2023-02-19T19:28:18.131Z,97215.19
2023-02-19T19:31:18.193Z,97228.28
2023-02-19T19:34:15.373Z,97242.00
2023-02-19T19:37:12.351Z,97246.78
2023-02-19T19:40:10.445Z,97238.31
2023-02-19T19:43:07.272Z,97230.97
2023-02-19T19:46:04.334Z,97242.59
2023-02-19T19:49:01.664Z,97250.25
2023-02-19T19:52:01.039Z,97256.09
2023-02-19T19:54:58.299Z,97257.31
2023-02-19T19:57:55.109Z,97261.50
2023-02-19T20:00:52.620Z,97258.69
2023-02-19T20:03:51.061Z,97264.28
2023-02-19T20:06:48.339Z,97253.44
2023-02-19T20:09:49.628Z,97245.44
2023-02-19T20:12:47.021Z,97232.09
2023-02-19T20:15:43.936Z,97236.22
2023-02-19T20:18:41.168Z,97231.69
2023-02-19T20:21:37.991Z,97235.41
2023-02-19T20:24:34.795Z,97250.78
2023-02-19T20:27:31.784Z,97249.22
2023-02-19T20:30:28.597Z,97246.56
2023-02-19T20:33:25.548Z,97256.34
2023-02-19T20:36:22.421Z,97244.13
2023-02-19T20:39:21.608Z,97245.41
2023-02-19T20:42:18.739Z,97244.91
2023-02-19T20:45:16.723Z,97246.47
2023-02-19T20:48:16.501Z,97248.63
2023-02-19T20:51:13.343Z,97245.50
2023-02-19T20:54:10.217Z,97252.16
2023-02-19T20:57:07.065Z,97249.66
2023-02-19T21:00:06.556Z,97242.06
2023-02-19T21:03:03.688Z,97251.53
2023-02-19T21:06:00.620Z,97244.38
2023-02-19T21:08:57.624Z,97244.38
2023-02-19T21:11:54.445Z,97237.47
2023-02-19T21:14:51.258Z,97235.63
2023-02-19T21:17:48.159Z,97256.09
2023-02-19T21:20:45.045Z,97249.00
2023-02-19T21:23:41.848Z,97255.63
2023-02-19T21:26:41.214Z,97255.56
2023-02-19T21:29:38.027Z,97268.91
2023-02-19T21:32:34.871Z,97272.41
2023-02-19T21:35:31.792Z,97277.47
2023-02-19T21:38:28.610Z,97282.75
2023-02-19T21:41:27.297Z,97289.06
2023-02-19T21:44:24.797Z,97289.94
2023-02-19T21:47:21.590Z,97292.84
2023-02-19T21:50:20.030Z,97292.78
2023-02-19T21:53:16.842Z,97297.34
2023-02-19T21:56:24.956Z,97296.00
2023-02-19T21:59:22.655Z,97294.88
2023-02-19T22:02:22.001Z,97297.03
2023-02-19T22:05:18.892Z,97296.50
2023-02-19T22:08:17.416Z,97287.19
2023-02-19T22:11:14.270Z,97274.19
2023-02-19T22:14:11.106Z,97276.09
2023-02-19T22:17:07.931Z,97268.66
2023-02-19T22:20:06.017Z,97277.09
2023-02-19T22:23:02.809Z,97278.44
2023-02-19T22:25:59.852Z,97279.28
2023-02-19T22:28:58.304Z,97266.25
2023-02-19T22:31:55.304Z,97265.72
2023-02-19T22:34:52.190Z,97270.19
2023-02-19T22:37:48.983Z,97263.81
2023-02-19T22:40:45.825Z,97263.06
2023-02-19T22:43:42.906Z,97262.75
2023-02-19T22:46:45.200Z,97264.06
2023-02-19T22:49:43.787Z,97272.31
2023-02-19T22:52:40.718Z,97256.38
2023-02-19T22:55:37.583Z,97260.59
2023-02-19T22:58:34.378Z,97246.78
2023-02-19T23:01:31.179Z,97260.09
2023-02-19T23:04:28.054Z,97250.25
2023-02-19T23:07:25.077Z,97257.94
2023-02-19T23:10:21.907Z,97258.75
2023-02-19T23:13:18.766Z,97284.75
2023-02-19T23:16:16.197Z,97274.66
2023-02-19T23:19:15.817Z,97265.34
2023-02-19T23:22:12.765Z,97276.50
2023-02-19T23:25:09.641Z,97276.28
2023-02-19T23:28:06.449Z,97275.13
2023-02-19T23:31:03.451Z,97271.94
2023-02-19T23:34:00.351Z,97269.53
2023-02-19T23:36:59.448Z,97270.53
2023-02-19T23:39:56.378Z,97270.81
2023-02-19T23:42:54.548Z,97267.41
2023-02-19T23:45:51.391Z,97262.56
2023-02-19T23:48:48.241Z,97264.94
2023-02-19T23:51:45.205Z,97272.97
2023-02-19T23:54:42.082Z,97268.69
2023-02-19T23:57:38.927Z,97256.72
